Terminal Aerodrome Forecast
Issued by NWS Louisville, KY

Home | Current Version | Previous Version | Text Only | Print | Product List | Glossary On
Versions: 1 2 3 4 5 6 7 8 9 10 11 12
000
FTUS43 KLMK 282320
TAFBWG
TAF
KBWG 282320Z 2900/2924 16006KT P6SM SCT250
     FM290800 18004KT P6SM FEW250 WS020/20035KT
     FM291300 19008KT P6SM FEW045 FEW150
     FM291700 19009G18KT P6SM VCSH FEW035 SCT050=

USA.gov is the U.S. government's official web portal to all federal, state and local government web resources and services.